createdAt,value
2023-01-28T00:00:04.402Z,0.38
2023-01-28T00:01:04.324Z,0.44
2023-01-28T00:02:04.304Z,0.38
2023-01-28T00:03:04.316Z,0.38
2023-01-28T00:04:04.254Z,0.38
2023-01-28T00:05:04.248Z,0.38
2023-01-28T00:06:04.169Z,0.38
2023-01-28T00:07:04.162Z,0.44
2023-01-28T00:08:03.990Z,0.38
2023-01-28T00:09:04.000Z,0.44
2023-01-28T00:10:03.906Z,0.44
2023-01-28T00:11:03.826Z,0.44
2023-01-28T00:12:03.830Z,0.38
2023-01-28T00:13:03.715Z,0.38
2023-01-28T00:14:03.591Z,0.38
2023-01-28T00:15:03.510Z,0.38
2023-01-28T00:16:03.552Z,0.38
2023-01-28T00:17:03.511Z,0.38
2023-01-28T00:18:03.665Z,0.44
2023-01-28T00:19:03.670Z,0.44
2023-01-28T00:20:03.597Z,0.44
2023-01-28T00:21:03.436Z,0.44
2023-01-28T00:22:04.390Z,0.44
2023-01-28T00:23:03.436Z,0.44
2023-01-28T00:24:04.507Z,0.44
2023-01-28T00:25:04.313Z,0.38
2023-01-28T00:26:04.395Z,0.38
2023-01-28T00:27:04.314Z,0.38
2023-01-28T00:28:04.311Z,0.38
2023-01-28T00:29:04.393Z,0.38
2023-01-28T00:30:04.226Z,0.38
2023-01-28T00:31:04.248Z,0.38
2023-01-28T00:32:04.191Z,0.38
2023-01-28T00:33:04.080Z,0.38
2023-01-28T00:34:04.073Z,0.31
2023-01-28T00:35:03.907Z,0.31
2023-01-28T00:36:03.911Z,0.31
2023-01-28T00:37:03.843Z,0.31
2023-01-28T00:38:03.751Z,0.31
2023-01-28T00:39:03.749Z,0.31
2023-01-28T00:40:03.680Z,0.31
2023-01-28T00:41:03.588Z,0.38
2023-01-28T00:42:03.593Z,0.38
2023-01-28T00:43:03.671Z,0.38
2023-01-28T00:44:03.511Z,0.38
2023-01-28T00:45:03.590Z,0.38
2023-01-28T00:46:03.692Z,0.38
2023-01-28T00:47:03.630Z,0.38
2023-01-28T00:48:03.431Z,0.38
2023-01-28T00:49:03.513Z,0.38
2023-01-28T00:50:04.312Z,0.38
2023-01-28T00:51:04.335Z,0.38
2023-01-28T00:52:04.321Z,0.44
2023-01-28T00:53:04.150Z,0.44
2023-01-28T00:54:04.234Z,0.44
2023-01-28T00:55:04.074Z,0.44
2023-01-28T00:56:04.154Z,0.38
2023-01-28T00:57:04.165Z,0.44
2023-01-28T00:58:04.167Z,0.44
2023-01-28T00:59:04.066Z,0.38
2023-01-28T01:00:04.077Z,0.44
2023-01-28T01:01:04.168Z,0.38
2023-01-28T01:02:03.908Z,0.38
2023-01-28T01:03:04.005Z,0.38
2023-01-28T01:04:03.849Z,0.38
2023-01-28T01:05:03.754Z,0.38
2023-01-28T01:06:03.753Z,0.38
2023-01-28T01:07:03.584Z,0.38
2023-01-28T01:08:03.510Z,0.38
2023-01-28T01:09:06.164Z,0.44
2023-01-28T01:10:04.493Z,0.44
2023-01-28T01:11:03.591Z,0.44
2023-01-28T01:12:03.603Z,0.44
2023-01-28T01:13:03.436Z,0.44
2023-01-28T01:14:04.392Z,0.44
2023-01-28T01:15:04.307Z,0.44
2023-01-28T01:16:03.885Z,0.44
2023-01-28T01:17:03.923Z,0.44
2023-01-28T01:18:03.753Z,0.44
2023-01-28T01:19:03.685Z,0.44
2023-01-28T01:20:03.673Z,0.44
2023-01-28T01:21:03.603Z,0.44
2023-01-28T01:22:03.556Z,0.38
2023-01-28T01:23:04.398Z,0.38
2023-01-28T01:24:04.363Z,0.38
2023-01-28T01:25:04.310Z,0.38
2023-01-28T01:26:04.318Z,0.38
2023-01-28T01:27:04.143Z,0.38
2023-01-28T01:28:04.153Z,0.31
2023-01-28T01:29:04.312Z,0.31
2023-01-28T01:30:04.156Z,0.31
2023-01-28T01:31:04.315Z,0.38
2023-01-28T01:32:04.197Z,0.31
2023-01-28T01:33:04.146Z,0.31
2023-01-28T01:34:04.151Z,0.38
2023-01-28T01:35:04.147Z,0.38
2023-01-28T01:36:04.075Z,0.31
2023-01-28T01:37:04.008Z,0.38
2023-01-28T01:38:03.911Z,0.38
2023-01-28T01:39:03.762Z,0.38
2023-01-28T01:40:03.762Z,0.38
2023-01-28T01:41:03.663Z,0.31
2023-01-28T01:42:03.599Z,0.31
2023-01-28T01:43:03.590Z,0.31
2023-01-28T01:44:03.513Z,0.25
2023-01-28T01:45:03.422Z,0.25
2023-01-28T01:46:04.558Z,0.31
2023-01-28T01:47:04.231Z,0.25
2023-01-28T01:48:04.237Z,0.31
2023-01-28T01:49:04.070Z,0.31
2023-01-28T01:50:03.989Z,0.31
2023-01-28T01:51:03.920Z,0.25
2023-01-28T01:52:03.858Z,0.25
2023-01-28T01:53:03.692Z,0.25
2023-01-28T01:54:03.586Z,0.25
2023-01-28T01:55:03.585Z,0.19
2023-01-28T01:56:03.509Z,0.19
2023-01-28T01:57:04.481Z,0.12
2023-01-28T01:58:04.400Z,0.19
2023-01-28T01:59:04.320Z,0.12
2023-01-28T02:00:04.231Z,0.12
2023-01-28T02:01:04.147Z,0.12
2023-01-28T02:02:04.032Z,0.12
2023-01-28T02:03:04.023Z,0.12
2023-01-28T02:04:03.916Z,0.12
2023-01-28T02:05:03.748Z,0.12
2023-01-28T02:06:03.670Z,0.12
2023-01-28T02:07:03.667Z,0.12
2023-01-28T02:08:03.502Z,0.12
2023-01-28T02:09:03.511Z,0.19
2023-01-28T02:10:04.407Z,0.19
2023-01-28T02:11:04.391Z,0.19
2023-01-28T02:12:04.307Z,0.19
2023-01-28T02:13:03.428Z,0.12
2023-01-28T02:14:03.442Z,0.12
2023-01-28T02:15:04.389Z,0.12
2023-01-28T02:16:04.406Z,0.12
2023-01-28T02:17:04.405Z,0.12
2023-01-28T02:18:04.313Z,0.12
2023-01-28T02:19:04.319Z,0.12
2023-01-28T02:20:04.233Z,0.12
2023-01-28T02:21:04.237Z,0.12
2023-01-28T02:22:04.077Z,0.12
2023-01-28T02:23:03.987Z,0.12
2023-01-28T02:24:04.055Z,0.12
2023-01-28T02:25:03.906Z,0.12
2023-01-28T02:26:03.744Z,0.12
2023-01-28T02:27:03.677Z,0.19
2023-01-28T02:28:03.586Z,0.19
2023-01-28T02:29:03.461Z,0.19
2023-01-28T02:30:04.397Z,0.12
2023-01-28T02:31:04.521Z,0.12
2023-01-28T02:32:04.475Z,0.12
2023-01-28T02:33:04.393Z,0.12
2023-01-28T02:34:04.226Z,0.12
2023-01-28T02:35:04.234Z,0.12
2023-01-28T02:36:04.154Z,0.12
2023-01-28T02:37:03.983Z,0.06
2023-01-28T02:38:03.917Z,0.06
2023-01-28T02:39:03.827Z,0.06
2023-01-28T02:40:03.743Z,0.12
2023-01-28T02:41:03.687Z,0.12
2023-01-28T02:42:03.504Z,0.06
2023-01-28T02:43:03.509Z,0.06
2023-01-28T02:44:03.422Z,0.06
2023-01-28T02:45:04.391Z,0.06
2023-01-28T02:46:04.331Z,0.06
2023-01-28T02:47:04.227Z,0.06
2023-01-28T02:48:04.237Z,0.06
2023-01-28T02:49:04.231Z,0.06
2023-01-28T02:50:04.146Z,0.00
2023-01-28T02:51:03.987Z,0.06
2023-01-28T02:52:03.991Z,0.06
2023-01-28T02:53:03.836Z,0.00
2023-01-28T02:54:03.749Z,0.06
2023-01-28T02:55:03.755Z,0.06
2023-01-28T02:56:04.067Z,0.06
2023-01-28T02:57:05.343Z,0.06
2023-01-28T02:58:04.310Z,0.06
2023-01-28T02:59:04.326Z,0.06
2023-01-28T03:00:04.252Z,0.06
2023-01-28T03:01:04.231Z,0.00
2023-01-28T03:02:04.225Z,0.00
2023-01-28T03:03:04.152Z,0.00
2023-01-28T03:04:04.068Z,0.00
2023-01-28T03:05:03.910Z,0.00
2023-01-28T03:06:03.931Z,0.00
2023-01-28T03:07:03.916Z,-0.06
2023-01-28T03:08:03.827Z,0.00
2023-01-28T03:09:03.765Z,0.00
2023-01-28T03:10:03.834Z,0.00
2023-01-28T03:11:03.670Z,0.00
2023-01-28T03:12:03.754Z,0.00
2023-01-28T03:13:03.592Z,0.00
2023-01-28T03:14:03.593Z,0.00
2023-01-28T03:15:03.503Z,0.00
2023-01-28T03:16:04.480Z,0.00
2023-01-28T03:17:04.468Z,0.00
2023-01-28T03:18:04.503Z,0.00
2023-01-28T03:19:04.318Z,0.06
2023-01-28T03:20:04.498Z,0.00
2023-01-28T03:21:04.535Z,0.00
2023-01-28T03:22:04.231Z,0.00
2023-01-28T03:23:05.752Z,0.00
2023-01-28T03:24:04.047Z,0.00
2023-01-28T03:25:03.988Z,-0.06
2023-01-28T03:26:03.835Z,-0.06
2023-01-28T03:27:03.763Z,0.00
2023-01-28T03:28:03.663Z,0.00
2023-01-28T03:29:03.600Z,0.00
2023-01-28T03:30:03.589Z,0.00
2023-01-28T03:31:03.448Z,0.00
2023-01-28T03:32:04.454Z,0.00
2023-01-28T03:33:04.383Z,0.00
2023-01-28T03:34:04.316Z,0.00
2023-01-28T03:35:04.251Z,0.00
2023-01-28T03:36:04.102Z,0.00
2023-01-28T03:37:03.990Z,-0.06
2023-01-28T03:38:03.989Z,-0.06
2023-01-28T03:39:03.826Z,-0.06
2023-01-28T03:40:03.912Z,-0.06
2023-01-28T03:41:03.832Z,-0.06
2023-01-28T03:42:03.749Z,-0.06
2023-01-28T03:43:03.757Z,-0.06
2023-01-28T03:44:03.586Z,-0.06
2023-01-28T03:45:03.623Z,-0.06
2023-01-28T03:46:03.633Z,-0.06
2023-01-28T03:47:04.392Z,-0.06
2023-01-28T03:48:04.308Z,-0.06
2023-01-28T03:49:04.242Z,-0.06
2023-01-28T03:50:04.224Z,-0.06
2023-01-28T03:51:04.072Z,-0.06
2023-01-28T03:52:03.993Z,0.00
2023-01-28T03:53:03.989Z,0.00
2023-01-28T03:54:03.990Z,0.00
2023-01-28T03:55:03.905Z,0.00
2023-01-28T03:56:03.941Z,0.00
2023-01-28T03:57:03.831Z,0.00
2023-01-28T03:58:03.844Z,0.00
2023-01-28T03:59:03.823Z,0.00
2023-01-28T04:00:03.753Z,-0.06
2023-01-28T04:01:03.752Z,-0.06
2023-01-28T04:02:03.744Z,0.00
2023-01-28T04:03:03.562Z,0.00
2023-01-28T04:04:03.508Z,0.00
2023-01-28T04:05:04.385Z,0.00
2023-01-28T04:06:03.442Z,0.00
2023-01-28T04:07:04.396Z,0.00
2023-01-28T04:08:04.312Z,-0.06
2023-01-28T04:09:04.230Z,-0.06
2023-01-28T04:10:04.305Z,-0.06
2023-01-28T04:11:04.226Z,-0.12
2023-01-28T04:12:04.160Z,-0.12
2023-01-28T04:13:04.027Z,-0.06
2023-01-28T04:14:03.999Z,-0.06
2023-01-28T04:15:03.996Z,-0.06
2023-01-28T04:16:04.027Z,-0.12
2023-01-28T04:17:03.994Z,-0.12
2023-01-28T04:18:03.935Z,-0.12
2023-01-28T04:19:03.988Z,-0.12
2023-01-28T04:20:03.903Z,-0.12
2023-01-28T04:21:03.828Z,-0.12
2023-01-28T04:22:03.746Z,-0.12
2023-01-28T04:23:03.754Z,-0.12
2023-01-28T04:24:03.872Z,-0.12
2023-01-28T04:25:03.832Z,-0.12
2023-01-28T04:26:03.762Z,-0.12
2023-01-28T04:27:03.775Z,-0.19
2023-01-28T04:28:03.617Z,-0.19
2023-01-28T04:29:03.505Z,-0.19
2023-01-28T04:30:03.502Z,-0.19
2023-01-28T04:31:03.636Z,-0.19
2023-01-28T04:32:03.445Z,-0.19
2023-01-28T04:33:04.396Z,-0.19
2023-01-28T04:34:04.317Z,-0.19
2023-01-28T04:35:04.402Z,-0.25
2023-01-28T04:36:04.303Z,-0.25
2023-01-28T04:37:04.255Z,-0.19
2023-01-28T04:38:04.155Z,-0.25
2023-01-28T04:39:04.301Z,-0.19
2023-01-28T04:40:04.255Z,-0.25
2023-01-28T04:41:04.251Z,-0.25
2023-01-28T04:42:04.232Z,-0.25
2023-01-28T04:43:04.148Z,-0.25
2023-01-28T04:44:04.158Z,-0.25
2023-01-28T04:45:04.392Z,-0.25
2023-01-28T04:46:04.383Z,-0.25
2023-01-28T04:47:04.315Z,-0.19
2023-01-28T04:48:04.316Z,-0.19
2023-01-28T04:49:04.234Z,-0.25
2023-01-28T04:50:04.234Z,-0.19
2023-01-28T04:51:04.139Z,-0.25
2023-01-28T04:52:04.152Z,-0.25
2023-01-28T04:53:03.990Z,-0.25
2023-01-28T04:54:03.985Z,-0.19
2023-01-28T04:55:03.913Z,-0.25
2023-01-28T04:56:03.999Z,-0.25
2023-01-28T04:57:03.908Z,-0.31
2023-01-28T04:58:03.920Z,-0.31
2023-01-28T04:59:03.765Z,-0.25
2023-01-28T05:00:03.669Z,-0.25
2023-01-28T05:01:03.640Z,-0.25
2023-01-28T05:02:03.733Z,-0.25
2023-01-28T05:03:03.590Z,-0.25
2023-01-28T05:04:03.507Z,-0.25
2023-01-28T05:05:04.391Z,-0.25
2023-01-28T05:06:04.225Z,-0.31
2023-01-28T05:07:04.319Z,-0.31
2023-01-28T05:08:04.148Z,-0.38
2023-01-28T05:09:04.078Z,-0.38
2023-01-28T05:10:04.035Z,-0.38
2023-01-28T05:11:03.925Z,-0.38
2023-01-28T05:12:03.843Z,-0.38
2023-01-28T05:13:03.755Z,-0.38
2023-01-28T05:14:03.670Z,-0.38
2023-01-28T05:15:03.511Z,-0.44
2023-01-28T05:16:03.503Z,-0.38
2023-01-28T05:17:04.483Z,-0.38
2023-01-28T05:18:04.302Z,-0.38
2023-01-28T05:19:04.341Z,-0.38
2023-01-28T05:20:04.244Z,-0.38
2023-01-28T05:21:04.311Z,-0.38
2023-01-28T05:22:04.310Z,-0.38
2023-01-28T05:23:04.145Z,-0.38
2023-01-28T05:24:04.332Z,-0.38
2023-01-28T05:25:04.406Z,-0.38
2023-01-28T05:26:04.384Z,-0.38
2023-01-28T05:27:04.407Z,-0.44
2023-01-28T05:28:04.235Z,-0.44
2023-01-28T05:29:04.086Z,-0.44
2023-01-28T05:30:03.997Z,-0.38
2023-01-28T05:31:03.941Z,-0.38
2023-01-28T05:32:03.837Z,-0.38
2023-01-28T05:33:03.740Z,-0.38
2023-01-28T05:34:03.672Z,-0.38
2023-01-28T05:35:03.608Z,-0.38
2023-01-28T05:36:04.472Z,-0.31
2023-01-28T05:37:04.399Z,-0.31
2023-01-28T05:38:04.229Z,-0.31
2023-01-28T05:39:04.175Z,-0.31
2023-01-28T05:40:04.156Z,-0.31
2023-01-28T05:41:04.067Z,-0.31
2023-01-28T05:42:04.014Z,-0.38
2023-01-28T05:43:03.922Z,-0.38
2023-01-28T05:44:03.840Z,-0.38
2023-01-28T05:45:03.830Z,-0.38
2023-01-28T05:46:03.769Z,-0.38
2023-01-28T05:47:03.667Z,-0.38
2023-01-28T05:48:03.756Z,-0.38
2023-01-28T05:49:03.835Z,-0.38
2023-01-28T05:50:03.915Z,-0.38
2023-01-28T05:51:03.667Z,-0.38
2023-01-28T05:52:03.685Z,-0.38
2023-01-28T05:53:03.515Z,-0.38
2023-01-28T05:54:04.380Z,-0.38
2023-01-28T05:55:04.415Z,-0.38
2023-01-28T05:56:04.400Z,-0.38
2023-01-28T05:57:04.307Z,-0.44
2023-01-28T05:58:04.310Z,-0.44
2023-01-28T05:59:04.223Z,-0.44
2023-01-28T06:00:04.241Z,-0.44
2023-01-28T06:01:04.158Z,-0.50
2023-01-28T06:02:04.124Z,-0.50
2023-01-28T06:03:04.066Z,-0.50
2023-01-28T06:04:04.074Z,-0.50
2023-01-28T06:05:03.940Z,-0.50
2023-01-28T06:06:03.993Z,-0.44
2023-01-28T06:07:03.914Z,-0.44
2023-01-28T06:08:03.839Z,-0.44
2023-01-28T06:09:03.743Z,-0.44
2023-01-28T06:10:03.833Z,-0.44
2023-01-28T06:11:03.673Z,-0.44
2023-01-28T06:12:03.588Z,-0.44
2023-01-28T06:13:03.595Z,-0.44
2023-01-28T06:14:03.673Z,-0.44
2023-01-28T06:15:03.588Z,-0.44
2023-01-28T06:16:03.586Z,-0.50
2023-01-28T06:17:04.468Z,-0.50
2023-01-28T06:18:03.507Z,-0.50
2023-01-28T06:19:03.514Z,-0.50
2023-01-28T06:20:03.512Z,-0.50
2023-01-28T06:21:03.511Z,-0.50
2023-01-28T06:22:04.743Z,-0.50
2023-01-28T06:23:03.421Z,-0.50
2023-01-28T06:24:04.449Z,-0.50
2023-01-28T06:25:04.342Z,-0.50
2023-01-28T06:26:04.238Z,-0.50
2023-01-28T06:27:04.226Z,-0.50
2023-01-28T06:28:04.152Z,-0.50
2023-01-28T06:29:03.990Z,-0.56
2023-01-28T06:30:03.910Z,-0.56
2023-01-28T06:31:03.881Z,-0.56
2023-01-28T06:32:03.894Z,-0.56
2023-01-28T06:33:03.673Z,-0.62
2023-01-28T06:34:03.596Z,-0.56
2023-01-28T06:35:03.512Z,-0.62
2023-01-28T06:36:03.518Z,-0.62
2023-01-28T06:37:04.474Z,-0.62
2023-01-28T06:38:04.228Z,-0.56
2023-01-28T06:39:04.150Z,-0.56
2023-01-28T06:40:04.230Z,-0.56
2023-01-28T06:41:04.158Z,-0.62
2023-01-28T06:42:03.990Z,-0.62
2023-01-28T06:43:04.078Z,-0.62
2023-01-28T06:44:04.003Z,-0.62
2023-01-28T06:45:03.913Z,-0.62
2023-01-28T06:46:03.793Z,-0.69
2023-01-28T06:47:03.761Z,-0.69
2023-01-28T06:48:04.219Z,-0.69
2023-01-28T06:49:03.590Z,-0.75
2023-01-28T06:50:03.585Z,-0.69
2023-01-28T06:51:03.592Z,-0.75
2023-01-28T06:52:03.422Z,-0.69
2023-01-28T06:53:03.445Z,-0.69
2023-01-28T06:54:04.477Z,-0.69
2023-01-28T06:55:04.306Z,-0.69
2023-01-28T06:56:04.173Z,-0.69
2023-01-28T06:57:04.160Z,-0.69
2023-01-28T06:58:04.075Z,-0.69
2023-01-28T06:59:04.158Z,-0.69
2023-01-28T07:00:04.013Z,-0.69
2023-01-28T07:01:03.585Z,-0.69
2023-01-28T07:02:03.609Z,-0.62
2023-01-28T07:03:03.646Z,-0.69
2023-01-28T07:04:03.511Z,-0.69
2023-01-28T07:05:03.513Z,-0.69
2023-01-28T07:06:04.426Z,-0.69
2023-01-28T07:07:04.310Z,-0.69
2023-01-28T07:08:04.240Z,-0.69
2023-01-28T07:09:04.156Z,-0.69
2023-01-28T07:10:04.228Z,-0.69
2023-01-28T07:11:04.079Z,-0.69
2023-01-28T07:12:03.988Z,-0.69
2023-01-28T07:13:03.917Z,-0.69
2023-01-28T07:14:03.838Z,-0.69
2023-01-28T07:15:03.854Z,-0.69
2023-01-28T07:16:03.756Z,-0.75
2023-01-28T07:17:03.842Z,-0.75
2023-01-28T07:18:03.709Z,-0.75
2023-01-28T07:19:03.594Z,-0.75
2023-01-28T07:20:03.597Z,-0.75
2023-01-28T07:21:03.436Z,-0.75
2023-01-28T07:22:04.386Z,-0.75
2023-01-28T07:23:04.315Z,-0.69
2023-01-28T07:24:04.312Z,-0.75
2023-01-28T07:25:04.306Z,-0.75
2023-01-28T07:26:04.309Z,-0.75
2023-01-28T07:27:04.313Z,-0.75
2023-01-28T07:28:05.119Z,-0.75
2023-01-28T07:29:04.235Z,-0.75
2023-01-28T07:30:04.077Z,-0.75
2023-01-28T07:31:04.112Z,-0.75
2023-01-28T07:32:03.926Z,-0.75
2023-01-28T07:33:03.666Z,-0.81
2023-01-28T07:34:03.593Z,-0.75
2023-01-28T07:35:03.508Z,-0.75
2023-01-28T07:36:04.464Z,-0.75
2023-01-28T07:37:04.409Z,-0.75
2023-01-28T07:38:04.230Z,-0.75
2023-01-28T07:39:04.141Z,-0.75
2023-01-28T07:40:04.145Z,-0.75
2023-01-28T07:41:04.229Z,-0.75
2023-01-28T07:42:04.074Z,-0.75
2023-01-28T07:43:03.913Z,-0.75
2023-01-28T07:44:03.828Z,-0.69
2023-01-28T07:45:03.829Z,-0.69
2023-01-28T07:46:03.841Z,-0.69
2023-01-28T07:47:03.792Z,-0.69
2023-01-28T07:48:03.596Z,-0.75
2023-01-28T07:49:03.517Z,-0.75
2023-01-28T07:50:04.545Z,-0.75
2023-01-28T07:51:04.479Z,-0.81
2023-01-28T07:52:04.311Z,-0.81
2023-01-28T07:53:04.228Z,-0.81
2023-01-28T07:54:05.201Z,-0.81
2023-01-28T07:55:04.228Z,-0.88
2023-01-28T07:56:04.153Z,-0.88
2023-01-28T07:57:04.018Z,-0.88
2023-01-28T07:58:03.913Z,-0.88
2023-01-28T07:59:03.868Z,-0.81
2023-01-28T08:00:03.749Z,-0.88
2023-01-28T08:01:03.741Z,-0.81
2023-01-28T08:02:03.841Z,-0.88
2023-01-28T08:03:03.750Z,-0.88
2023-01-28T08:04:03.861Z,-0.88
2023-01-28T08:05:03.907Z,-0.88
2023-01-28T08:06:03.746Z,-0.88
2023-01-28T08:07:03.754Z,-0.88
2023-01-28T08:08:03.684Z,-0.88
2023-01-28T08:09:03.894Z,-0.88
2023-01-28T08:10:03.909Z,-0.88
2023-01-28T08:11:03.849Z,-0.88
2023-01-28T08:12:04.241Z,-0.88
2023-01-28T08:13:04.152Z,-0.88
2023-01-28T08:14:04.077Z,-0.88
2023-01-28T08:15:03.994Z,-0.88
2023-01-28T08:16:03.904Z,-0.88
2023-01-28T08:17:03.832Z,-0.88
2023-01-28T08:18:03.753Z,-0.88
2023-01-28T08:19:03.846Z,-0.88
2023-01-28T08:20:03.667Z,-0.88
2023-01-28T08:21:03.676Z,-0.88
2023-01-28T08:22:03.511Z,-0.81
2023-01-28T08:23:03.512Z,-0.88
2023-01-28T08:24:03.542Z,-0.88
2023-01-28T08:25:04.392Z,-0.88
2023-01-28T08:26:04.389Z,-0.88
2023-01-28T08:27:04.305Z,-0.88
2023-01-28T08:28:04.245Z,-0.88
2023-01-28T08:29:04.088Z,-0.81
2023-01-28T08:30:04.076Z,-0.81
2023-01-28T08:31:04.078Z,-0.81
2023-01-28T08:32:03.943Z,-0.81
2023-01-28T08:33:03.832Z,-0.75
2023-01-28T08:34:03.754Z,-0.81
2023-01-28T08:35:03.830Z,-0.81
2023-01-28T08:36:03.821Z,-0.81
2023-01-28T08:37:03.832Z,-0.81
2023-01-28T08:38:03.750Z,-0.81
2023-01-28T08:39:03.748Z,-0.75
2023-01-28T08:40:03.673Z,-0.75
2023-01-28T08:41:03.592Z,-0.75
2023-01-28T08:42:03.594Z,-0.75
2023-01-28T08:43:03.666Z,-0.75
2023-01-28T08:44:03.505Z,-0.75
2023-01-28T08:45:03.598Z,-0.69
2023-01-28T08:46:03.523Z,-0.69
2023-01-28T08:47:04.473Z,-0.69
2023-01-28T08:48:04.402Z,-0.69
2023-01-28T08:49:04.307Z,-0.62
2023-01-28T08:50:04.226Z,-0.62
2023-01-28T08:51:04.317Z,-0.56
2023-01-28T08:52:04.311Z,-0.56
2023-01-28T08:53:04.236Z,-0.56
2023-01-28T08:54:04.228Z,-0.56
2023-01-28T08:55:04.163Z,-0.56
2023-01-28T08:56:04.147Z,-0.50
2023-01-28T08:57:04.084Z,-0.50
2023-01-28T08:58:04.000Z,-0.50
2023-01-28T08:59:03.908Z,-0.44
2023-01-28T09:00:03.908Z,-0.50
2023-01-28T09:01:03.751Z,-0.50
2023-01-28T09:02:03.835Z,-0.50
2023-01-28T09:03:05.829Z,-0.50
2023-01-28T09:04:03.790Z,-0.50
2023-01-28T09:05:03.666Z,-0.50
2023-01-28T09:06:03.666Z,-0.50
2023-01-28T09:07:03.671Z,-0.50
2023-01-28T09:08:03.668Z,-0.50
2023-01-28T09:09:03.597Z,-0.50
2023-01-28T09:10:03.592Z,-0.50
2023-01-28T09:11:03.726Z,-0.50
2023-01-28T09:12:03.588Z,-0.44
2023-01-28T09:13:03.513Z,-0.44
2023-01-28T09:14:03.595Z,-0.38
2023-01-28T09:15:03.427Z,-0.44
2023-01-28T09:16:03.526Z,-0.44
2023-01-28T09:17:03.604Z,-0.44
2023-01-28T09:18:03.456Z,-0.44
2023-01-28T09:19:04.402Z,-0.38
2023-01-28T09:20:04.311Z,-0.38
2023-01-28T09:21:04.318Z,-0.38
2023-01-28T09:22:04.158Z,-0.38
2023-01-28T09:23:03.997Z,-0.38
2023-01-28T09:24:04.130Z,-0.38
2023-01-28T09:25:03.925Z,-0.38
2023-01-28T09:26:03.998Z,-0.31
2023-01-28T09:27:03.833Z,-0.31
2023-01-28T09:28:03.916Z,-0.31
2023-01-28T09:29:03.745Z,-0.31
2023-01-28T09:30:03.673Z,-0.31
2023-01-28T09:31:03.909Z,-0.31
2023-01-28T09:32:04.148Z,-0.31
2023-01-28T09:33:04.078Z,-0.31
2023-01-28T09:34:06.574Z,-0.25
2023-01-28T09:35:04.066Z,-0.25
2023-01-28T09:36:04.075Z,-0.25
2023-01-28T09:37:03.989Z,-0.25
2023-01-28T09:38:03.921Z,-0.25
2023-01-28T09:39:03.863Z,-0.25
2023-01-28T09:40:03.782Z,-0.19
2023-01-28T09:41:03.761Z,-0.25
2023-01-28T09:42:03.680Z,-0.25
2023-01-28T09:43:03.591Z,-0.25
2023-01-28T09:44:03.510Z,-0.25
2023-01-28T09:45:04.416Z,-0.25
2023-01-28T09:46:04.319Z,-0.25
2023-01-28T09:47:04.308Z,-0.25
2023-01-28T09:48:04.228Z,-0.25
2023-01-28T09:49:04.157Z,-0.25
2023-01-28T09:50:04.063Z,-0.19
2023-01-28T09:51:04.088Z,-0.19
2023-01-28T09:52:04.154Z,-0.12
2023-01-28T09:53:04.072Z,-0.12
2023-01-28T09:54:03.909Z,-0.12
2023-01-28T09:55:03.918Z,-0.12
2023-01-28T09:56:03.833Z,-0.12
2023-01-28T09:57:03.828Z,-0.19
2023-01-28T09:58:03.663Z,-0.19
2023-01-28T09:59:03.665Z,-0.19
2023-01-28T10:00:03.669Z,-0.19
2023-01-28T10:01:03.683Z,-0.12
2023-01-28T10:02:03.669Z,-0.12
2023-01-28T10:03:03.674Z,-0.12
2023-01-28T10:04:03.569Z,-0.12
2023-01-28T10:05:03.424Z,-0.12
2023-01-28T10:06:04.475Z,-0.12
2023-01-28T10:07:04.396Z,-0.12
2023-01-28T10:08:04.313Z,-0.12
2023-01-28T10:09:04.303Z,-0.12
2023-01-28T10:10:04.240Z,-0.19
2023-01-28T10:11:04.148Z,-0.25
2023-01-28T10:12:04.074Z,-0.25
2023-01-28T10:13:04.074Z,-0.31
2023-01-28T10:14:03.999Z,-0.31
2023-01-28T10:15:03.910Z,-0.38
2023-01-28T10:16:03.782Z,-0.38
2023-01-28T10:17:03.773Z,-0.38
2023-01-28T10:18:14.959Z,-0.38
2023-01-28T10:19:03.662Z,-0.38
2023-01-28T10:20:03.675Z,-0.44
2023-01-28T10:21:03.515Z,-0.44
2023-01-28T10:22:03.549Z,-0.44
2023-01-28T10:23:03.503Z,-0.38
2023-01-28T10:24:03.465Z,-0.44
2023-01-28T10:25:04.394Z,-0.44
2023-01-28T10:26:04.319Z,-0.44
2023-01-28T10:27:04.319Z,-0.38
2023-01-28T10:28:04.152Z,-0.44
2023-01-28T10:29:04.169Z,-0.50
2023-01-28T10:30:03.994Z,-0.50
2023-01-28T10:31:03.961Z,-0.50
2023-01-28T10:32:03.915Z,-0.50
2023-01-28T10:33:03.840Z,-0.50
2023-01-28T10:34:03.762Z,-0.50
2023-01-28T10:35:03.680Z,-0.50
2023-01-28T10:36:03.602Z,-0.50
2023-01-28T10:37:04.388Z,-0.56
2023-01-28T10:38:04.471Z,-0.56
2023-01-28T10:39:04.396Z,-0.56
2023-01-28T10:40:04.415Z,-0.56
2023-01-28T10:41:04.327Z,-0.56
2023-01-28T10:42:04.313Z,-0.56
2023-01-28T10:43:04.236Z,-0.56
2023-01-28T10:44:04.235Z,-0.56
2023-01-28T10:45:04.151Z,-0.56
2023-01-28T10:46:04.028Z,-0.56
2023-01-28T10:47:03.984Z,-0.56
2023-01-28T10:48:03.904Z,-0.56
2023-01-28T10:49:03.745Z,-0.56
2023-01-28T10:50:03.838Z,-0.56
2023-01-28T10:51:03.611Z,-0.56
2023-01-28T10:52:03.590Z,-0.56
2023-01-28T10:53:03.450Z,-0.50
2023-01-28T10:54:04.397Z,-0.50
2023-01-28T10:55:04.337Z,-0.50
2023-01-28T10:56:04.157Z,-0.50
2023-01-28T10:57:04.172Z,-0.50
2023-01-28T10:58:04.005Z,-0.56
2023-01-28T10:59:04.001Z,-0.56
2023-01-28T11:00:03.914Z,-0.50
2023-01-28T11:01:03.855Z,-0.50
2023-01-28T11:02:03.933Z,-0.50
2023-01-28T11:03:03.758Z,-0.56
2023-01-28T11:04:03.748Z,-0.50
2023-01-28T11:05:03.750Z,-0.56
2023-01-28T11:06:03.692Z,-0.50
2023-01-28T11:07:03.512Z,-0.50
2023-01-28T11:08:03.599Z,-0.50
2023-01-28T11:09:03.552Z,-0.44
2023-01-28T11:10:03.509Z,-0.44
2023-01-28T11:11:04.470Z,-0.50
2023-01-28T11:12:04.317Z,-0.50
2023-01-28T11:13:04.398Z,-0.44
2023-01-28T11:14:04.237Z,-0.44
2023-01-28T11:15:04.142Z,-0.44
2023-01-28T11:16:04.093Z,-0.44
2023-01-28T11:17:04.079Z,-0.44
2023-01-28T11:18:03.909Z,-0.44
2023-01-28T11:19:04.123Z,-0.44
2023-01-28T11:20:03.952Z,-0.44
2023-01-28T11:21:03.911Z,-0.38
2023-01-28T11:22:03.847Z,-0.38
2023-01-28T11:23:03.661Z,-0.44
2023-01-28T11:24:03.882Z,-0.44
2023-01-28T11:25:03.769Z,-0.38
2023-01-28T11:26:03.749Z,-0.38
2023-01-28T11:27:03.686Z,-0.31
2023-01-28T11:28:03.596Z,-0.31
2023-01-28T11:29:03.519Z,-0.38
2023-01-28T11:30:03.594Z,-0.38
2023-01-28T11:31:04.518Z,-0.31
2023-01-28T11:32:04.478Z,-0.31
2023-01-28T11:33:04.314Z,-0.31
2023-01-28T11:34:04.230Z,-0.31
2023-01-28T11:35:04.146Z,-0.31
2023-01-28T11:36:04.237Z,-0.25
2023-01-28T11:37:04.231Z,-0.25
2023-01-28T11:38:04.067Z,-0.25
2023-01-28T11:39:03.989Z,-0.25
2023-01-28T11:40:04.010Z,-0.19
2023-01-28T11:41:03.916Z,-0.19
2023-01-28T11:42:03.834Z,-0.19
2023-01-28T11:43:03.835Z,-0.12
2023-01-28T11:44:03.709Z,-0.19
2023-01-28T11:45:03.687Z,-0.12
2023-01-28T11:46:05.269Z,-0.12
2023-01-28T11:47:03.587Z,-0.19
2023-01-28T11:48:03.594Z,-0.19
2023-01-28T11:49:03.514Z,-0.19
2023-01-28T11:50:03.594Z,-0.19
2023-01-28T11:51:03.458Z,-0.19
2023-01-28T11:52:04.492Z,-0.25
2023-01-28T11:53:06.271Z,-0.25
2023-01-28T11:54:04.505Z,-0.19
2023-01-28T11:55:04.422Z,-0.19
2023-01-28T11:56:04.306Z,-0.19
2023-01-28T11:57:04.301Z,-0.19
2023-01-28T11:58:04.240Z,-0.19
2023-01-28T11:59:04.151Z,-0.19
2023-01-28T12:00:04.070Z,-0.12
2023-01-28T12:01:04.070Z,-0.12
2023-01-28T12:02:03.988Z,-0.12
2023-01-28T12:03:03.991Z,-0.12
2023-01-28T12:04:04.072Z,-0.12
2023-01-28T12:05:03.971Z,-0.06
2023-01-28T12:06:03.914Z,-0.06
2023-01-28T12:07:03.831Z,-0.06
2023-01-28T12:08:03.750Z,-0.12
2023-01-28T12:09:03.836Z,-0.12
2023-01-28T12:10:03.757Z,-0.12
2023-01-28T12:11:03.688Z,-0.06
2023-01-28T12:12:04.901Z,-0.06
2023-01-28T12:13:03.685Z,-0.06
2023-01-28T12:14:03.503Z,-0.06
2023-01-28T12:15:04.468Z,-0.06
2023-01-28T12:16:04.502Z,-0.06
2023-01-28T12:17:04.482Z,0.00
2023-01-28T12:18:04.407Z,0.00
2023-01-28T12:19:04.148Z,0.00
2023-01-28T12:20:04.225Z,-0.06
2023-01-28T12:21:04.234Z,0.00
2023-01-28T12:22:04.148Z,-0.06
2023-01-28T12:23:04.083Z,-0.06
2023-01-28T12:24:04.016Z,-0.06
2023-01-28T12:25:03.836Z,0.00
2023-01-28T12:26:03.747Z,0.00
2023-01-28T12:27:03.775Z,-0.06
2023-01-28T12:28:03.664Z,-0.06
2023-01-28T12:29:03.520Z,-0.12
2023-01-28T12:30:04.541Z,-0.12
2023-01-28T12:31:04.690Z,-0.19
2023-01-28T12:32:04.439Z,-0.19
2023-01-28T12:33:04.226Z,-0.19
2023-01-28T12:34:04.321Z,-0.19
2023-01-28T12:35:04.238Z,-0.19
2023-01-28T12:36:04.154Z,-0.25
2023-01-28T12:37:04.151Z,-0.25
2023-01-28T12:38:03.987Z,-0.25
2023-01-28T12:39:03.907Z,-0.31
2023-01-28T12:40:03.753Z,-0.31
2023-01-28T12:41:03.752Z,-0.25
2023-01-28T12:42:03.586Z,-0.25
2023-01-28T12:43:03.589Z,-0.25
2023-01-28T12:44:03.550Z,-0.25
2023-01-28T12:45:04.421Z,-0.25
2023-01-28T12:46:04.534Z,-0.25
2023-01-28T12:47:04.505Z,-0.25
2023-01-28T12:48:04.229Z,-0.25
2023-01-28T12:49:04.164Z,-0.25
2023-01-28T12:50:04.153Z,-0.19
2023-01-28T12:51:04.217Z,-0.25
2023-01-28T12:52:03.995Z,-0.25
2023-01-28T12:53:03.993Z,-0.31
2023-01-28T12:54:03.910Z,-0.31
2023-01-28T12:55:03.837Z,-0.25
2023-01-28T12:56:03.750Z,-0.25
2023-01-28T12:57:03.585Z,-0.25
2023-01-28T12:58:03.595Z,-0.25
2023-01-28T12:59:03.432Z,-0.25
2023-01-28T13:00:03.521Z,-0.25